KHUF

Terre Haute Regional Airport

Terre Haute, Indiana, USA
KHUF 162338Z 1700/1724 VRB03KT P6SM OVC015 FM170600 12006KT P6SM VCSH OVC009 FM170800 12006KT 4SM -RASN BR OVC007 FM171300 13006KT 1 1/2SM -RA BR OVC006 FM171800 15005KT 4SM BR OVC004
Issued Valid From Valid To
Jan-16 @ 23:38 UTC
(5 hours ago)
Jan-17 @ 00:00 UTC
(5 hours ago)
Jan-18 @ 00:00 UTC
(in 19 hours)
Jan-17 @ 00:00 to Jan-17 @ 06:00
KHUF 162338Z 1700/1724 VRB03KT P6SM OVC015
Wind Visibility Clouds
Variable at 3 knots Greater than 6 miles
  • Overcast at 1,500' AGL
From Jan-17 @ 06:00 to Jan-17 @ 08:00
FM170600 12006KT P6SM VCSH OVC009
Wind Visibility Clouds
120° at 6 knots Greater than 6 miles
  • Overcast at 900' AGL
From Jan-17 @ 08:00 to Jan-17 @ 13:00
FM170800 12006KT 4SM -RASN BR OVC007
Wind Visibility Clouds Conditions
120° at 6 knots 4 miles
  • Overcast at 700' AGL
  • Light Rain
  • Light Snow
  • Mist
From Jan-17 @ 13:00 to Jan-17 @ 18:00
FM171300 13006KT 1 1/2SM -RA BR OVC006
Wind Visibility Clouds Conditions
130° at 6 knots 1 1/2 miles
  • Overcast at 600' AGL
  • Light Rain
  • Mist
From Jan-17 @ 18:00 to Jan-18 @ 00:00
FM171800 15005KT 4SM BR OVC004
Wind Visibility Clouds Conditions
150° at 5 knots 4 miles
  • Overcast at 400' AGL
  • Mist
KHUF 162338Z 1700/1724 VRB03KT P6SM OVC015 FM170600 12006KT P6SM VCSH OVC009 FM170800 12006KT 4SM -RASN BR OVC007 FM171300 13006KT 1 1/2SM -RA BR OVC006 FM171800 15005KT 4SM BR OVC004
Issued Jan-16 @ 23:38 UTC
(5 hours ago)
Valid From Jan-17 @ 00:00 UTC
(5 hours ago)
Valid To Jan-18 @ 00:00 UTC
(in 19 hours)
Jan-17 @ 00:00 - Jan-17 @ 06:00
Wind Visibility
Variable at 3 knots Greater than 6 miles
Clouds
  • Overcast at 1,500' AGL
From Jan-17 @ 06:00 - Jan-17 @ 08:00
Wind Visibility
120° at 6 knots Greater than 6 miles
Clouds
  • Overcast at 900' AGL
From Jan-17 @ 08:00 - Jan-17 @ 13:00
Wind Visibility
120° at 6 knots 4 miles
Clouds
  • Overcast at 700' AGL
Conditions
  • Light Rain
  • Light Snow
  • Mist
From Jan-17 @ 13:00 - Jan-17 @ 18:00
Wind Visibility
130° at 6 knots 1 1/2 miles
Clouds
  • Overcast at 600' AGL
Conditions
  • Light Rain
  • Mist
From Jan-17 @ 18:00 - Jan-18 @ 00:00
Wind Visibility
150° at 5 knots 4 miles
Clouds
  • Overcast at 400' AGL
Conditions
  • Mist